Time;durP1;ratioP1;P1;durP2;ratioP2;P2;SDS_P1;SDS_P2;PMS_P1;PMS_P2;Temp;Humidity;BMP_temperature;BMP_pressure;BME280_temperature;BME280_humidity;BME280_pressure;Samples;Min_cycle;Max_cycle;Signal;HPM_P1;HPM_P2
2024/03/06 00:00:17;;;;;;;23.40;15.05;;;;;;;;;;5080090;28;20020;-75
2024/03/06 00:02:45;;;;;;;19.48;13.30;;;;;;;;;;5072250;28;20080;-75
2024/03/06 00:05:11;;;;;;;15.90;11.60;;;;;;;;;;5072091;28;20036;-74
2024/03/06 00:07:37;;;;;;;21.58;14.95;;;;;;;;;;5071955;28;20487;-74
2024/03/06 00:10:04;;;;;;;18.98;13.25;;;;;;;;;;5079441;28;20387;-76
2024/03/06 00:12:31;;;;;;;25.05;15.55;;;;;;;;;;5062387;28;20107;-76
2024/03/06 00:14:57;;;;;;;19.33;14.13;;;;;;;;;;5072275;28;20024;-77
2024/03/06 00:17:23;;;;;;;22.40;14.82;;;;;;;;;;5071349;28;20115;-76
2024/03/06 00:19:49;;;;;;;19.23;13.85;;;;;;;;;;5053421;28;20102;-76
2024/03/06 00:22:15;;;;;;;21.40;14.50;;;;;;;;;;5076177;28;20491;-74
2024/03/06 00:24:41;;;;;;;18.08;12.90;;;;;;;;;;5072564;28;20056;-76
2024/03/06 00:27:07;;;;;;;17.52;12.18;;;;;;;;;;5078990;28;20025;-75
2024/03/06 00:29:33;;;;;;;16.90;11.98;;;;;;;;;;5082473;28;20097;-74
2024/03/06 00:31:59;;;;;;;16.88;11.95;;;;;;;;;;5083177;28;20116;-75
2024/03/06 00:34:26;;;;;;;15.00;10.90;;;;;;;;;;5082335;28;20024;-75
2024/03/06 00:36:54;;;;;;;21.23;13.65;;;;;;;;;;5063392;28;20100;-75
2024/03/06 00:39:20;;;;;;;19.83;13.68;;;;;;;;;;5063669;28;20024;-74
2024/03/06 00:41:46;;;;;;;19.10;13.65;;;;;;;;;;5080284;28;20028;-76
2024/03/06 00:44:12;;;;;;;20.25;14.23;;;;;;;;;;5078813;28;20025;-76
2024/03/06 00:46:39;;;;;;;20.83;13.90;;;;;;;;;;5076480;28;20114;-76
2024/03/06 00:49:05;;;;;;;20.25;14.02;;;;;;;;;;5071276;28;20039;-76
2024/03/06 00:51:36;;;;;;;24.13;15.48;;;;;;;;;;5071897;28;20378;-76
2024/03/06 00:54:02;;;;;;;19.50;13.88;;;;;;;;;;5086480;28;20039;-76
2024/03/06 00:56:28;;;;;;;17.85;13.13;;;;;;;;;;5093102;28;20028;-74
2024/03/06 00:58:54;;;;;;;23.10;15.38;;;;;;;;;;5077326;28;20025;-75
2024/03/06 01:01:20;;;;;;;20.55;14.25;;;;;;;;;;5083725;28;20084;-75
2024/03/06 01:03:46;;;;;;;21.45;14.50;;;;;;;;;;5070462;28;20469;-76
2024/03/06 01:06:12;;;;;;;19.92;13.77;;;;;;;;;;5096110;28;20028;-76
2024/03/06 01:08:38;;;;;;;17.90;13.25;;;;;;;;;;5084119;28;20021;-76
2024/03/06 01:11:05;;;;;;;22.42;15.05;;;;;;;;;;5078680;28;20028;-76
2024/03/06 01:13:31;;;;;;;22.10;14.88;;;;;;;;;;5083619;28;20019;-75
2024/03/06 01:15:57;;;;;;;19.35;13.85;;;;;;;;;;5080258;28;20463;-75
2024/03/06 01:18:23;;;;;;;24.95;15.73;;;;;;;;;;5092026;28;20024;-76
2024/03/06 01:20:49;;;;;;;20.98;14.70;;;;;;;;;;5084720;28;20024;-76
2024/03/06 01:23:16;;;;;;;21.55;14.60;;;;;;;;;;5083645;28;20024;-75
2024/03/06 01:25:42;;;;;;;23.25;15.98;;;;;;;;;;5066508;28;20052;-76
2024/03/06 01:28:08;;;;;;;21.33;14.40;;;;;;;;;;5087283;28;20072;-75
2024/03/06 01:30:35;;;;;;;20.55;13.75;;;;;;;;;;5082395;28;20032;-75
2024/03/06 01:33:01;;;;;;;22.58;15.82;;;;;;;;;;5087423;28;20024;-76
2024/03/06 01:35:27;;;;;;;20.90;13.60;;;;;;;;;;5067628;28;20024;-75
2024/03/06 01:37:53;;;;;;;24.05;15.93;;;;;;;;;;5084688;28;20022;-74
2024/03/06 01:40:19;;;;;;;25.20;17.48;;;;;;;;;;5078288;28;20035;-76
2024/03/06 01:42:48;;;;;;;25.98;16.63;;;;;;;;;;5083406;28;20487;-76
2024/03/06 01:45:14;;;;;;;22.35;14.18;;;;;;;;;;5081618;28;20078;-76
2024/03/06 01:47:40;;;;;;;20.92;13.90;;;;;;;;;;5076071;28;20066;-75
2024/03/06 01:50:08;;;;;;;26.08;15.48;;;;;;;;;;5076014;28;20017;-76
2024/03/06 01:52:36;;;;;;;22.98;15.43;;;;;;;;;;5077358;28;20295;-76
2024/03/06 01:55:02;;;;;;;25.70;15.73;;;;;;;;;;5083599;28;20021;-76
2024/03/06 01:57:28;;;;;;;28.88;17.52;;;;;;;;;;5082057;28;20024;-75
2024/03/06 01:59:55;;;;;;;28.98;16.85;;;;;;;;;;5080560;28;20026;-76
2024/03/06 02:02:21;;;;;;;22.13;14.68;;;;;;;;;;5058680;28;20039;-75
2024/03/06 02:04:47;;;;;;;23.17;15.77;;;;;;;;;;5081327;28;20092;-75
2024/03/06 02:07:13;;;;;;;26.52;16.70;;;;;;;;;;5085424;28;20021;-75
2024/03/06 02:09:40;;;;;;;26.45;17.58;;;;;;;;;;5087027;28;20023;-75
2024/03/06 02:12:08;;;;;;;29.55;18.45;;;;;;;;;;5082413;28;20017;-74
2024/03/06 02:14:34;;;;;;;31.42;18.75;;;;;;;;;;5086396;28;20020;-75
2024/03/06 02:17:00;;;;;;;29.05;17.88;;;;;;;;;;5068080;28;20478;-76
2024/03/06 02:19:38;;;;;;;29.33;17.73;;;;;;;;;;5083642;28;20050;-75
2024/03/06 02:22:04;;;;;;;29.00;18.02;;;;;;;;;;5084190;28;20039;-76
2024/03/06 02:24:30;;;;;;;28.60;17.73;;;;;;;;;;5093801;28;20017;-76
2024/03/06 02:26:57;;;;;;;27.38;17.08;;;;;;;;;;5084589;28;20023;-75
2024/03/06 02:29:26;;;;;;;30.67;18.52;;;;;;;;;;5075981;28;20012;-76
2024/03/06 02:31:52;;;;;;;32.50;18.83;;;;;;;;;;5074116;28;20499;-76
2024/03/06 02:34:18;;;;;;;33.58;18.75;;;;;;;;;;5074377;28;20048;-76
2024/03/06 02:36:44;;;;;;;31.20;19.02;;;;;;;;;;5076996;28;20031;-75
2024/03/06 02:39:10;;;;;;;32.03;18.92;;;;;;;;;;5073358;28;20478;-76
2024/03/06 02:41:37;;;;;;;34.80;19.33;;;;;;;;;;5058431;28;20036;-76
2024/03/06 02:44:03;;;;;;;33.45;19.17;;;;;;;;;;5072800;28;20024;-75
2024/03/06 02:46:29;;;;;;;31.10;17.73;;;;;;;;;;5077007;28;20714;-75
2024/03/06 02:48:56;;;;;;;32.08;18.38;;;;;;;;;;5069149;28;20024;-76
2024/03/06 02:51:22;;;;;;;29.75;17.77;;;;;;;;;;5074140;28;20040;-75
2024/03/06 02:53:49;;;;;;;32.40;16.50;;;;;;;;;;5055757;28;20085;-76
2024/03/06 02:56:21;;;;;;;28.52;16.23;;;;;;;;;;5078502;28;20027;-76
2024/03/06 02:58:47;;;;;;;28.75;17.25;;;;;;;;;;5055951;28;20085;-75
2024/03/06 03:01:14;;;;;;;31.48;17.15;;;;;;;;;;5075312;28;20070;-76
2024/03/06 03:03:44;;;;;;;28.98;16.60;;;;;;;;;;5077373;28;20359;-76
2024/03/06 03:06:10;;;;;;;25.75;15.13;;;;;;;;;;5075807;28;20114;-76
2024/03/06 03:08:40;;;;;;;26.38;14.75;;;;;;;;;;5070658;28;20028;-75
2024/03/06 03:11:07;;;;;;;22.60;13.23;;;;;;;;;;5071633;28;20020;-76
2024/03/06 03:13:34;;;;;;;18.90;11.98;;;;;;;;;;5074530;28;20020;-76
2024/03/06 03:16:00;;;;;;;18.83;10.90;;;;;;;;;;5075573;28;20360;-75
2024/03/06 03:18:27;;;;;;;15.15;9.30;;;;;;;;;;5057628;28;20028;-76
2024/03/06 03:20:53;;;;;;;11.90;7.55;;;;;;;;;;5073081;28;20174;-74
2024/03/06 03:23:21;;;;;;;12.38;7.50;;;;;;;;;;5055575;28;20087;-75
2024/03/06 03:25:51;;;;;;;10.45;6.18;;;;;;;;;;5075635;28;20016;-76
2024/03/06 03:28:17;;;;;;;8.15;5.43;;;;;;;;;;5072688;28;20017;-75
2024/03/06 03:30:46;;;;;;;6.75;5.00;;;;;;;;;;5077059;28;20031;-74
2024/03/06 03:33:12;;;;;;;6.88;4.40;;;;;;;;;;5075598;28;20032;-74
2024/03/06 03:35:38;;;;;;;5.78;4.25;;;;;;;;;;5073864;28;20048;-75
2024/03/06 03:38:04;;;;;;;5.10;3.60;;;;;;;;;;5075472;28;20035;-76
2024/03/06 03:40:32;;;;;;;4.57;2.95;;;;;;;;;;5071197;28;20028;-76
2024/03/06 03:42:58;;;;;;;3.40;2.55;;;;;;;;;;5069388;28;20107;-75
2024/03/06 03:45:25;;;;;;;3.30;2.53;;;;;;;;;;5076950;28;20016;-76
2024/03/06 03:47:51;;;;;;;2.55;2.33;;;;;;;;;;5093251;28;20044;-75
2024/03/06 03:50:17;;;;;;;2.97;2.25;;;;;;;;;;5092159;28;20072;-76
2024/03/06 03:52:43;;;;;;;1.98;1.77;;;;;;;;;;5064928;28;20025;-77
2024/03/06 03:55:09;;;;;;;1.70;1.60;;;;;;;;;;5089557;28;20004;-74
2024/03/06 03:57:36;;;;;;;1.70;1.42;;;;;;;;;;5084192;28;20052;-77
2024/03/06 04:00:02;;;;;;;1.48;1.38;;;;;;;;;;5084346;28;20029;-74
2024/03/06 04:02:28;;;;;;;1.38;1.25;;;;;;;;;;5048117;28;20125;-75
2024/03/06 04:04:54;;;;;;;1.30;1.05;;;;;;;;;;5059493;28;20037;-74
2024/03/06 04:07:21;;;;;;;1.50;1.38;;;;;;;;;;5061442;28;20032;-74
2024/03/06 04:09:47;;;;;;;1.27;1.20;;;;;;;;;;5065291;28;20028;-75
2024/03/06 04:12:13;;;;;;;2.17;1.50;;;;;;;;;;5057325;28;20021;-75
2024/03/06 04:14:39;;;;;;;1.40;1.30;;;;;;;;;;5065098;28;20031;-75
2024/03/06 04:17:05;;;;;;;1.58;1.48;;;;;;;;;;5071480;28;20023;-76
2024/03/06 04:19:32;;;;;;;1.23;1.13;;;;;;;;;;5070608;28;20074;-75
2024/03/06 04:21:58;;;;;;;1.58;1.48;;;;;;;;;;5055396;28;20116;-75
2024/03/06 04:24:24;;;;;;;1.15;1.05;;;;;;;;;;5081381;28;20028;-75
2024/03/06 04:26:50;;;;;;;0.98;0.90;;;;;;;;;;5094588;28;20029;-74
2024/03/06 04:29:17;;;;;;;1.52;1.42;;;;;;;;;;5083647;28;20042;-75
2024/03/06 04:31:43;;;;;;;1.30;1.20;;;;;;;;;;5056818;28;20099;-75
2024/03/06 04:34:09;;;;;;;0.90;0.85;;;;;;;;;;5074132;28;20043;-76
2024/03/06 04:36:35;;;;;;;1.33;1.23;;;;;;;;;;5083800;28;20498;-76
2024/03/06 04:39:07;;;;;;;1.35;1.25;;;;;;;;;;5082407;28;20024;-76
2024/03/06 04:41:33;;;;;;;1.13;1.03;;;;;;;;;;5065033;28;20039;-77
2024/03/06 04:44:00;;;;;;;1.10;1.10;;;;;;;;;;5074744;28;20285;-75
2024/03/06 04:46:27;;;;;;;1.38;1.10;;;;;;;;;;5057434;28;20070;-76
2024/03/06 04:48:53;;;;;;;1.15;1.08;;;;;;;;;;5082946;28;20031;-76
2024/03/06 04:51:19;;;;;;;1.20;1.10;;;;;;;;;;5074620;28;20032;-76
2024/03/06 04:53:45;;;;;;;1.13;1.00;;;;;;;;;;5055770;28;20024;-76
2024/03/06 04:56:12;;;;;;;1.33;1.13;;;;;;;;;;5075048;28;20031;-76
2024/03/06 04:58:38;;;;;;;0.95;0.90;;;;;;;;;;5056427;28;20248;-76
2024/03/06 05:01:04;;;;;;;1.08;0.98;;;;;;;;;;5080709;28;20077;-76
2024/03/06 05:03:31;;;;;;;0.75;0.75;;;;;;;;;;5078835;28;20029;-76
2024/03/06 05:05:57;;;;;;;1.35;1.25;;;;;;;;;;5088480;28;20019;-77
2024/03/06 05:08:23;;;;;;;1.63;1.25;;;;;;;;;;5069795;28;20072;-75
2024/03/06 05:10:49;;;;;;;1.23;1.13;;;;;;;;;;5087006;28;20020;-75
2024/03/06 05:13:15;;;;;;;1.55;1.02;;;;;;;;;;5071034;28;20016;-75
2024/03/06 05:15:42;;;;;;;1.13;1.02;;;;;;;;;;5075004;28;20028;-76
2024/03/06 05:18:09;;;;;;;1.05;1.00;;;;;;;;;;5065380;28;20047;-76
2024/03/06 05:20:35;;;;;;;1.45;1.13;;;;;;;;;;5056295;28;20031;-75
2024/03/06 05:23:02;;;;;;;1.55;1.05;;;;;;;;;;5075438;28;20024;-76
2024/03/06 05:25:28;;;;;;;1.38;1.20;;;;;;;;;;5074814;28;20017;-76
2024/03/06 05:27:54;;;;;;;3.08;1.30;;;;;;;;;;5075326;28;20013;-75
2024/03/06 05:30:21;;;;;;;1.05;0.95;;;;;;;;;;5074224;28;20025;-75
2024/03/06 05:32:47;;;;;;;1.45;1.35;;;;;;;;;;5075319;28;20033;-76
2024/03/06 05:35:13;;;;;;;1.52;1.42;;;;;;;;;;5075144;28;20033;-76
2024/03/06 05:37:39;;;;;;;1.17;1.08;;;;;;;;;;5079754;28;20403;-76
2024/03/06 05:40:06;;;;;;;1.25;1.15;;;;;;;;;;5071266;28;20020;-76
2024/03/06 05:42:32;;;;;;;1.80;1.65;;;;;;;;;;5071120;28;20034;-76
2024/03/06 05:45:04;;;;;;;1.33;1.23;;;;;;;;;;5065997;28;20032;-76
2024/03/06 05:47:31;;;;;;;;;;;;;;;;;;5043249;28;20103;-77
2024/03/06 05:49:57;;;;;;;1.52;1.30;;;;;;;;;;5054320;28;19926;-76
2024/03/06 05:52:24;;;;;;;1.08;1.08;;;;;;;;;;5058056;28;20025;-75
2024/03/06 05:54:50;;;;;;;1.00;0.90;;;;;;;;;;5063628;28;20020;-76
2024/03/06 05:57:16;;;;;;;1.48;0.90;;;;;;;;;;5063373;28;20387;-76
2024/03/06 05:59:42;;;;;;;1.58;1.10;;;;;;;;;;5070826;28;20713;-77
2024/03/06 06:02:09;;;;;;;0.80;0.80;;;;;;;;;;5058078;28;20029;-76
2024/03/06 06:04:35;;;;;;;1.25;1.15;;;;;;;;;;5071814;28;20025;-76
2024/03/06 06:07:03;;;;;;;1.30;1.20;;;;;;;;;;5074647;28;20020;-76
2024/03/06 06:09:29;;;;;;;1.42;1.00;;;;;;;;;;5096320;28;20034;-76
2024/03/06 06:11:55;;;;;;;1.27;1.17;;;;;;;;;;5094786;28;20016;-76
2024/03/06 06:14:21;;;;;;;0.80;0.80;;;;;;;;;;5060312;28;20107;-75
2024/03/06 06:16:48;;;;;;;0.88;0.88;;;;;;;;;;5056885;28;20497;-77
2024/03/06 06:19:14;;;;;;;1.20;0.95;;;;;;;;;;5074741;28;20094;-77
2024/03/06 06:21:40;;;;;;;1.30;1.20;;;;;;;;;;5084557;28;20036;-75
2024/03/06 06:24:07;;;;;;;1.30;1.20;;;;;;;;;;5080411;28;20031;-74
2024/03/06 06:26:33;;;;;;;1.30;1.20;;;;;;;;;;5087911;28;20082;-75
2024/03/06 06:28:59;;;;;;;1.92;1.20;;;;;;;;;;5091836;28;20035;-75
2024/03/06 06:31:26;;;;;;;1.40;1.25;;;;;;;;;;5092339;28;20032;-74
2024/03/06 06:33:52;;;;;;;1.42;1.33;;;;;;;;;;5094023;28;20029;-74
2024/03/06 06:36:19;;;;;;;1.33;1.23;;;;;;;;;;5075515;28;20036;-75
2024/03/06 06:38:45;;;;;;;1.17;1.08;;;;;;;;;;5097851;28;20020;-75
2024/03/06 06:41:11;;;;;;;0.98;0.98;;;;;;;;;;5098664;28;20038;-75
2024/03/06 06:43:37;;;;;;;1.02;0.93;;;;;;;;;;5080650;28;20038;-75
2024/03/06 06:46:05;;;;;;;0.73;0.73;;;;;;;;;;5091450;28;20039;-75
2024/03/06 06:48:33;;;;;;;1.23;1.13;;;;;;;;;;5080805;28;20020;-76
2024/03/06 06:51:02;;;;;;;1.08;1.08;;;;;;;;;;5057723;28;20048;-74
2024/03/06 06:53:28;;;;;;;1.45;1.23;;;;;;;;;;5076181;28;20032;-75
2024/03/06 06:55:54;;;;;;;1.40;1.30;;;;;;;;;;5057889;28;20029;-76
2024/03/06 06:58:20;;;;;;;1.70;1.50;;;;;;;;;;5092410;28;20029;-75
2024/03/06 07:00:46;;;;;;;1.50;1.40;;;;;;;;;;5106140;28;20012;-74
2024/03/06 07:03:13;;;;;;;1.10;1.00;;;;;;;;;;5086201;28;20058;-76
2024/03/06 07:05:41;;;;;;;1.45;1.30;;;;;;;;;;5087938;28;20020;-76
2024/03/06 07:08:08;;;;;;;1.60;1.50;;;;;;;;;;5091518;28;20039;-75
2024/03/06 07:10:35;;;;;;;1.20;0.95;;;;;;;;;;5092506;28;20105;-76
2024/03/06 07:13:02;;;;;;;1.33;1.23;;;;;;;;;;5093901;28;20024;-74
2024/03/06 07:15:29;;;;;;;1.20;1.02;;;;;;;;;;5076691;28;20025;-76
2024/03/06 07:17:55;;;;;;;1.60;1.48;;;;;;;;;;5076474;28;20302;-76
2024/03/06 07:20:21;;;;;;;2.42;1.65;;;;;;;;;;5081132;28;20025;-75
2024/03/06 07:22:47;;;;;;;2.17;1.70;;;;;;;;;;5077523;28;20020;-74
2024/03/06 07:25:14;;;;;;;1.25;1.15;;;;;;;;;;5078957;28;20103;-76
2024/03/06 07:27:40;;;;;;;1.83;1.38;;;;;;;;;;5062894;28;20021;-76
2024/03/06 07:30:07;;;;;;;1.33;1.23;;;;;;;;;;5060745;28;20027;-77
2024/03/06 07:32:33;;;;;;;1.50;1.40;;;;;;;;;;5076221;28;20020;-76
2024/03/06 07:34:59;;;;;;;1.23;1.13;;;;;;;;;;5086552;28;20036;-76
2024/03/06 07:37:25;;;;;;;1.20;1.10;;;;;;;;;;5066478;28;20028;-74
2024/03/06 07:39:51;;;;;;;1.30;1.20;;;;;;;;;;5093977;28;20039;-76
2024/03/06 07:42:18;;;;;;;1.00;1.00;;;;;;;;;;5076422;28;20096;-73
2024/03/06 07:44:44;;;;;;;0.93;0.93;;;;;;;;;;5086223;28;20166;-75
2024/03/06 07:47:10;;;;;;;1.92;1.25;;;;;;;;;;5085294;28;20025;-76
2024/03/06 07:49:36;;;;;;;1.67;1.45;;;;;;;;;;5059685;28;20483;-74
2024/03/06 07:52:03;;;;;;;1.55;1.45;;;;;;;;;;5056324;28;20121;-76
2024/03/06 07:54:29;;;;;;;1.02;1.00;;;;;;;;;;5078224;28;20028;-76
2024/03/06 07:56:55;;;;;;;1.15;1.08;;;;;;;;;;5066500;28;20024;-76
2024/03/06 07:59:21;;;;;;;1.10;1.00;;;;;;;;;;5082675;28;20048;-76
2024/03/06 08:01:48;;;;;;;1.33;1.23;;;;;;;;;;5084120;28;20055;-75
2024/03/06 08:04:14;;;;;;;1.65;1.30;;;;;;;;;;5080618;28;20497;-76
2024/03/06 08:06:40;;;;;;;1.48;1.38;;;;;;;;;;5079902;28;20119;-77
2024/03/06 08:09:07;;;;;;;1.35;1.23;;;;;;;;;;5062609;28;20032;-75
2024/03/06 08:11:33;;;;;;;1.50;1.40;;;;;;;;;;5093825;28;20012;-75
2024/03/06 08:14:01;;;;;;;0.85;0.85;;;;;;;;;;5079283;28;20386;-76
2024/03/06 08:16:28;;;;;;;1.08;0.90;;;;;;;;;;5088250;28;20060;-76
2024/03/06 08:18:54;;;;;;;1.23;0.90;;;;;;;;;;5079620;28;20064;-76
2024/03/06 08:21:20;;;;;;;1.45;1.17;;;;;;;;;;5082311;28;20037;-75
2024/03/06 08:23:49;;;;;;;2.13;1.40;;;;;;;;;;5079562;28;20123;-76
2024/03/06 08:26:16;;;;;;;1.88;1.50;;;;;;;;;;5067407;28;20029;-76
2024/03/06 08:28:42;;;;;;;1.30;1.20;;;;;;;;;;5086772;28;20023;-76
2024/03/06 08:31:08;;;;;;;0.80;0.80;;;;;;;;;;5078302;28;20452;-76
2024/03/06 08:33:34;;;;;;;0.85;0.85;;;;;;;;;;5081334;28;20050;-76
2024/03/06 08:36:01;;;;;;;1.02;0.95;;;;;;;;;;5085638;28;20032;-76
2024/03/06 08:38:27;;;;;;;0.57;0.57;;;;;;;;;;5087629;28;20012;-74
2024/03/06 08:40:53;;;;;;;1.15;0.80;;;;;;;;;;5116181;22;20051;-78
2024/03/06 08:43:20;;;;;;;0.82;0.82;;;;;;;;;;5070070;28;20028;-79
2024/03/06 08:45:46;;;;;;;0.90;0.90;;;;;;;;;;5074407;28;20501;-79
2024/03/06 08:48:12;;;;;;;1.10;1.00;;;;;;;;;;5089350;28;20039;-79
2024/03/06 08:50:38;;;;;;;0.82;0.82;;;;;;;;;;5069207;28;20194;-79
2024/03/06 08:53:05;;;;;;;1.10;1.00;;;;;;;;;;5065951;28;20025;-78
2024/03/06 08:55:31;;;;;;;0.75;0.75;;;;;;;;;;5080401;28;20342;-78
2024/03/06 08:57:58;;;;;;;0.75;0.75;;;;;;;;;;5078817;28;20024;-78
2024/03/06 09:00:26;;;;;;;1.30;1.00;;;;;;;;;;5077655;28;20016;-77
2024/03/06 09:02:53;;;;;;;0.82;0.82;;;;;;;;;;5069336;28;20073;-78
2024/03/06 09:05:20;;;;;;;1.20;1.10;;;;;;;;;;5078762;28;20257;-79
2024/03/06 09:07:46;;;;;;;1.90;1.23;;;;;;;;;;5060085;28;20474;-78
2024/03/06 09:10:13;;;;;;;1.10;1.00;;;;;;;;;;5076832;28;20478;-79
2024/03/06 09:12:39;;;;;;;1.05;0.95;;;;;;;;;;5078038;28;20029;-78
2024/03/06 09:15:08;;;;;;;1.13;1.02;;;;;;;;;;5082585;28;20032;-79
2024/03/06 09:17:35;;;;;;;0.82;0.82;;;;;;;;;;5082444;28;20482;-79
2024/03/06 09:20:09;;;;;;;1.48;1.20;;;;;;;;;;5056296;28;20589;-79
2024/03/06 09:22:36;;;;;;;1.65;1.13;;;;;;;;;;5081767;28;20054;-79
2024/03/06 09:25:02;;;;;;;1.23;1.00;;;;;;;;;;5056996;28;20533;-77
2024/03/06 09:27:28;;;;;;;1.20;1.08;;;;;;;;;;5075091;28;20031;-79
2024/03/06 09:29:54;;;;;;;0.63;0.63;;;;;;;;;;5078186;28;20017;-78
2024/03/06 09:32:22;;;;;;;0.95;0.93;;;;;;;;;;5080054;28;20031;-79
2024/03/06 09:34:48;;;;;;;1.17;0.90;;;;;;;;;;5072509;28;20036;-80
2024/03/06 09:37:14;;;;;;;0.65;0.60;;;;;;;;;;5088889;28;20039;-79
2024/03/06 09:39:40;;;;;;;0.70;0.70;;;;;;;;;;5079599;28;20017;-79
2024/03/06 09:42:07;;;;;;;0.75;0.65;;;;;;;;;;5078511;28;20036;-80
2024/03/06 09:44:33;;;;;;;0.47;0.40;;;;;;;;;;5079942;28;20032;-78
2024/03/06 09:47:00;;;;;;;0.40;0.40;;;;;;;;;;5079268;28;20025;-78
2024/03/06 09:49:26;;;;;;;0.50;0.50;;;;;;;;;;5056890;28;20483;-78
2024/03/06 09:51:55;;;;;;;0.50;0.50;;;;;;;;;;5089212;28;20051;-79
2024/03/06 09:54:22;;;;;;;0.80;0.80;;;;;;;;;;5083875;28;20024;-79
2024/03/06 09:56:49;;;;;;;0.55;0.55;;;;;;;;;;5082404;28;20020;-79
2024/03/06 09:59:16;;;;;;;0.40;0.40;;;;;;;;;;5081753;28;20024;-79
2024/03/06 10:01:54;;;;;;;0.60;0.60;;;;;;;;;;5058796;28;20025;-79
2024/03/06 10:04:21;;;;;;;0.70;0.70;;;;;;;;;;5087410;28;20027;-79
2024/03/06 10:06:48;;;;;;;0.85;0.50;;;;;;;;;;5080984;28;20060;-78
2024/03/06 10:09:17;;;;;;;0.77;0.77;;;;;;;;;;5077909;28;20033;-78
2024/03/06 10:11:43;;;;;;;0.80;0.80;;;;;;;;;;5076429;28;20459;-79
2024/03/06 10:14:12;;;;;;;0.90;0.88;;;;;;;;;;5077614;28;20035;-78
2024/03/06 10:16:38;;;;;;;1.23;0.70;;;;;;;;;;5077326;28;20031;-78
2024/03/06 10:19:18;;;;;;;1.98;1.10;;;;;;;;;;5068507;28;20067;-78
2024/03/06 10:21:45;;;;;;;1.08;1.08;;;;;;;;;;5075541;28;20032;-78
2024/03/06 10:24:11;;;;;;;1.48;1.00;;;;;;;;;;5079079;28;20126;-78
2024/03/06 10:26:37;;;;;;;2.20;1.05;;;;;;;;;;5062549;28;20359;-78
2024/03/06 10:29:03;;;;;;;0.98;0.90;;;;;;;;;;5087353;28;20008;-79
2024/03/06 10:31:29;;;;;;;1.52;1.30;;;;;;;;;;5082116;28;20073;-79
2024/03/06 10:33:55;;;;;;;1.73;1.38;;;;;;;;;;5077943;28;20050;-79
2024/03/06 10:36:22;;;;;;;3.13;1.80;;;;;;;;;;5079516;28;20067;-78
2024/03/06 10:38:52;;;;;;;1.77;1.35;;;;;;;;;;5078086;28;20035;-77
2024/03/06 10:41:24;;;;;;;0.93;0.88;;;;;;;;;;5077531;28;20468;-78
2024/03/06 10:43:51;;;;;;;1.60;1.10;;;;;;;;;;5076445;28;20522;-78
2024/03/06 10:46:21;;;;;;;1.67;0.95;;;;;;;;;;5080618;28;20222;-79
2024/03/06 10:48:49;;;;;;;1.42;0.80;;;;;;;;;;5077787;28;20056;-79
2024/03/06 10:51:17;;;;;;;0.60;0.60;;;;;;;;;;5076506;28;20028;-78
2024/03/06 10:53:43;;;;;;;0.85;0.80;;;;;;;;;;5070323;28;20036;-79
2024/03/06 10:56:10;;;;;;;1.33;0.80;;;;;;;;;;5088694;28;20056;-79
2024/03/06 10:58:37;;;;;;;1.02;0.90;;;;;;;;;;5081149;28;20033;-78
2024/03/06 11:01:04;;;;;;;0.95;0.82;;;;;;;;;;5080293;28;20029;-78
2024/03/06 11:03:31;;;;;;;0.70;0.70;;;;;;;;;;5079876;28;20087;-78
2024/03/06 11:05:57;;;;;;;0.50;0.50;;;;;;;;;;5053233;28;20032;-78
2024/03/06 11:08:25;;;;;;;1.30;0.85;;;;;;;;;;5060701;28;20036;-78
2024/03/06 11:10:52;;;;;;;0.85;0.77;;;;;;;;;;5078408;28;20074;-78
2024/03/06 11:13:18;;;;;;;2.20;0.90;;;;;;;;;;5078346;28;20029;-78
2024/03/06 11:15:44;;;;;;;1.10;1.00;;;;;;;;;;5078211;28;20025;-78
2024/03/06 11:18:36;;;;;;;0.63;0.63;;;;;;;;;;5079735;28;20032;-77
2024/03/06 11:21:02;;;;;;;0.82;0.82;;;;;;;;;;5052348;28;20513;-78
2024/03/06 11:23:29;;;;;;;1.17;1.08;;;;;;;;;;5079018;28;20028;-78
2024/03/06 11:25:55;;;;;;;0.98;0.82;;;;;;;;;;5056415;28;20027;-76
2024/03/06 11:28:25;;;;;;;1.88;1.27;;;;;;;;;;5082084;28;20009;-78
2024/03/06 11:31:02;;;;;;;1.85;1.25;;;;;;;;;;5076761;28;20055;-80
2024/03/06 11:33:41;;;;;;;1.30;1.20;;;;;;;;;;5071875;28;20029;-77
2024/03/06 11:36:18;;;;;;;2.08;1.08;;;;;;;;;;5078363;28;20070;-79
2024/03/06 11:39:03;;;;;;;1.55;1.30;;;;;;;;;;5089733;28;20117;-78
2024/03/06 11:41:30;;;;;;;2.22;1.40;;;;;;;;;;5072992;28;20036;-78
2024/03/06 11:43:57;;;;;;;1.60;1.50;;;;;;;;;;5090377;28;20056;-79
2024/03/06 11:46:43;;;;;;;1.15;1.05;;;;;;;;;;5090199;28;20080;-78
2024/03/06 11:49:24;;;;;;;1.60;1.00;;;;;;;;;;5089969;28;20106;-78
2024/03/06 11:51:50;;;;;;;1.55;1.42;;;;;;;;;;5063802;28;20025;-79
2024/03/06 11:54:24;;;;;;;2.35;1.73;;;;;;;;;;5082408;28;20061;-79
2024/03/06 11:56:51;;;;;;;1.63;1.27;;;;;;;;;;5090023;28;20023;-77
2024/03/06 11:59:17;;;;;;;1.25;1.00;;;;;;;;;;5071480;28;20118;-77
2024/03/06 12:01:43;;;;;;;1.30;1.20;;;;;;;;;;5089896;28;20055;-78
2024/03/06 12:04:10;;;;;;;1.70;1.27;;;;;;;;;;5079730;28;20412;-78
2024/03/06 12:06:36;;;;;;;1.75;1.30;;;;;;;;;;5090275;28;20048;-79
2024/03/06 12:09:03;;;;;;;1.55;1.30;;;;;;;;;;5090000;28;20424;-77
2024/03/06 12:11:30;;;;;;;1.70;1.17;;;;;;;;;;5072348;28;20088;-77
2024/03/06 12:13:57;;;;;;;0.93;0.93;;;;;;;;;;5089822;28;20338;-77
2024/03/06 12:16:23;;;;;;;1.58;0.90;;;;;;;;;;5090579;28;20052;-79
2024/03/06 12:18:57;;;;;;;1.15;0.95;;;;;;;;;;5078364;28;20020;-79
2024/03/06 12:21:24;;;;;;;1.58;1.00;;;;;;;;;;5082869;28;20055;-79
2024/03/06 12:23:50;;;;;;;1.40;1.10;;;;;;;;;;5076320;28;20020;-77
2024/03/06 12:26:16;;;;;;;1.30;1.20;;;;;;;;;;5069899;28;20029;-76
2024/03/06 12:28:42;;;;;;;1.30;1.20;;;;;;;;;;5065795;28;20367;-77
2024/03/06 12:31:09;;;;;;;2.33;1.52;;;;;;;;;;5088074;28;20029;-76
2024/03/06 12:33:35;;;;;;;1.58;1.30;;;;;;;;;;5090297;28;20045;-79
2024/03/06 12:36:06;;;;;;;2.20;1.60;;;;;;;;;;5092844;28;20489;-77
2024/03/06 12:38:33;;;;;;;1.48;1.33;;;;;;;;;;5091456;28;20093;-78
2024/03/06 12:40:59;;;;;;;2.17;1.58;;;;;;;;;;5090553;28;20036;-79
2024/03/06 12:43:26;;;;;;;2.10;1.52;;;;;;;;;;5091469;28;20046;-78
2024/03/06 12:45:57;;;;;;;2.38;1.80;;;;;;;;;;5091727;28;20008;-78
2024/03/06 12:48:23;;;;;;;2.35;1.70;;;;;;;;;;5095181;28;20029;-78
2024/03/06 12:50:51;;;;;;;2.50;1.60;;;;;;;;;;5083732;28;20028;-78
2024/03/06 12:53:21;;;;;;;2.33;1.70;;;;;;;;;;5088907;28;20039;-79
2024/03/06 12:55:48;;;;;;;1.60;1.30;;;;;;;;;;5077281;28;20039;-78
2024/03/06 12:58:14;;;;;;;1.45;1.35;;;;;;;;;;5084086;28;20104;-78
2024/03/06 13:00:40;;;;;;;2.22;1.60;;;;;;;;;;5094946;28;20058;-79
2024/03/06 13:03:07;;;;;;;2.88;2.00;;;;;;;;;;5095583;28;20028;-78
2024/03/06 13:05:33;;;;;;;2.42;1.42;;;;;;;;;;5073138;28;20028;-79
2024/03/06 13:07:59;;;;;;;1.75;1.40;;;;;;;;;;5088373;28;20021;-77
2024/03/06 13:10:26;;;;;;;2.03;1.50;;;;;;;;;;5085065;28;20325;-77
2024/03/06 13:12:52;;;;;;;1.50;1.40;;;;;;;;;;5084751;28;20096;-77
2024/03/06 13:15:18;;;;;;;1.33;1.23;;;;;;;;;;5085347;28;20111;-78
2024/03/06 13:17:44;;;;;;;1.40;1.15;;;;;;;;;;5061464;28;20060;-77
2024/03/06 13:20:13;;;;;;;1.88;1.50;;;;;;;;;;5085742;28;20032;-79
2024/03/06 13:22:39;;;;;;;2.38;1.50;;;;;;;;;;5063784;28;20055;-78
2024/03/06 13:25:06;;;;;;;1.92;1.55;;;;;;;;;;5082961;28;20081;-78
2024/03/06 13:27:32;;;;;;;3.63;1.80;;;;;;;;;;5084685;28;20021;-77
2024/03/06 13:29:58;;;;;;;2.17;1.50;;;;;;;;;;5078645;28;20054;-77
2024/03/06 13:32:24;;;;;;;1.35;1.25;;;;;;;;;;5059275;28;20104;-78
2024/03/06 13:34:51;;;;;;;1.92;1.67;;;;;;;;;;5082588;28;20402;-78
2024/03/06 13:37:17;;;;;;;2.10;1.13;;;;;;;;;;5070760;28;20033;-78
2024/03/06 13:39:43;;;;;;;1.42;1.33;;;;;;;;;;5080196;28;20059;-77
2024/03/06 13:42:09;;;;;;;2.35;2.10;;;;;;;;;;5085870;28;20117;-78
2024/03/06 13:44:36;;;;;;;2.45;1.52;;;;;;;;;;5068041;28;20116;-78
2024/03/06 13:47:02;;;;;;;2.58;1.88;;;;;;;;;;5064546;28;20027;-78
2024/03/06 13:49:55;;;;;;;2.63;2.05;;;;;;;;;;5065203;28;20025;-77
2024/03/06 13:52:23;;;;;;;1.67;1.55;;;;;;;;;;5067372;28;20097;-78
2024/03/06 13:54:49;;;;;;;1.60;1.50;;;;;;;;;;5078713;28;20027;-79
2024/03/06 13:57:16;;;;;;;1.77;1.40;;;;;;;;;;5074514;28;20033;-78
2024/03/06 13:59:42;;;;;;;2.92;1.65;;;;;;;;;;5081047;28;20025;-78
2024/03/06 14:02:09;;;;;;;1.40;1.30;;;;;;;;;;5064172;28;20032;-79
2024/03/06 14:04:35;;;;;;;1.98;1.52;;;;;;;;;;5063067;28;20484;-79
2024/03/06 14:07:01;;;;;;;1.50;1.38;;;;;;;;;;5068149;28;20100;-79
2024/03/06 14:09:28;;;;;;;1.27;1.15;;;;;;;;;;5057607;28;20037;-78
2024/03/06 14:11:54;;;;;;;1.30;1.20;;;;;;;;;;5081217;28;20021;-79
2024/03/06 14:14:21;;;;;;;1.20;1.10;;;;;;;;;;5084675;28;20040;-79
2024/03/06 14:16:47;;;;;;;1.77;1.50;;;;;;;;;;5059669;28;20059;-78
2024/03/06 14:19:13;;;;;;;3.17;1.63;;;;;;;;;;5063395;28;20036;-78
2024/03/06 14:21:40;;;;;;;1.35;1.27;;;;;;;;;;5072615;28;20033;-78
2024/03/06 14:24:06;;;;;;;2.17;1.60;;;;;;;;;;5084504;28;20024;-78
2024/03/06 14:26:32;;;;;;;1.50;1.35;;;;;;;;;;5068393;28;20039;-79
2024/03/06 14:28:59;;;;;;;2.13;1.23;;;;;;;;;;5084899;28;20082;-78
2024/03/06 14:31:25;;;;;;;2.25;1.60;;;;;;;;;;5086590;28;20094;-78
2024/03/06 14:33:51;;;;;;;1.50;1.40;;;;;;;;;;5061059;28;20107;-77
2024/03/06 14:36:18;;;;;;;1.67;1.33;;;;;;;;;;5087534;28;20043;-78